Sacramento, California
Traffic Map
Current Weather Conditions
Sacramento, California
Clear
Clear
22°
Feels Like: 22°
Wind Chill: 22° Ceiling: Unl
Heat Index: 22° Visibility: 10mi
Dew Point: 11° Wind: 5mph
Humidity: 49% Direction: 180° (S)
Pressure: 29.73in Gusts: 0mph
Raw Report DataKSAC 021053Z AUTO 18004KT 10SM CLR 22/11 A2973 RMK AO2 SLP068 T02170106
Traffic Incident Summary
Active as of:
Severity:
Category:
InformationThere was an issue retrieving the traffic information for this location. Please try a different location or try again shortly.
Advertisements
Track Severe Weather on mobile